Terminal Aerodrome Forecast
Issued by NWS Spokane, WA

Home | Current Version | Previous Version | Text Only | Print | Product List | Glossary On
Versions: 1 2 3 4 5 6 7 8 9 10 11 12 13 14 15 16 17 18 19 20 21 22 23 24 25 26
000
FTUS46 KOTX 011138
TAFEAT
TAF
KEAT 011138Z 0112/0212 30007KT P6SM FEW200
     FM012100 30016G22KT P6SM SCT200
     FM020200 30014KT P6SM SCT150
     FM021000 30010KT P6SM FEW150=

USA.gov is the U.S. government's official web portal to all federal, state and local government web resources and services.